sensor_id;sensor_type;location;lat;lon;timestamp;pressure;altitude;pressure_sealevel;temperature;humidity
16793;BME280;8513;42.662;23.350;2023-05-20T00:02:07;95213.34;;;14.93;62.72
16793;BME280;8513;42.662;23.350;2023-05-20T00:04:33;95214.06;;;14.87;62.93
16793;BME280;8513;42.662;23.350;2023-05-20T00:06:58;95216.19;;;14.52;63.88
16793;BME280;8513;42.662;23.350;2023-05-20T00:09:24;95219.59;;;14.69;63.88
16793;BME280;8513;42.662;23.350;2023-05-20T00:11:49;95215.19;;;14.53;64.37
16793;BME280;8513;42.662;23.350;2023-05-20T00:14:14;95224.84;;;14.13;65.70
16793;BME280;8513;42.662;23.350;2023-05-20T00:16:40;95221.34;;;14.29;65.01
16793;BME280;8513;42.662;23.350;2023-05-20T00:19:06;95224.13;;;14.44;64.50
16793;BME280;8513;42.662;23.350;2023-05-20T00:21:31;95214.75;;;14.33;64.96
16793;BME280;8513;42.662;23.350;2023-05-20T00:23:58;95217.00;;;14.45;64.56
16793;BME280;8513;42.662;23.350;2023-05-20T00:26:23;95218.19;;;14.42;64.40
16793;BME280;8513;42.662;23.350;2023-05-20T00:28:49;95218.16;;;14.50;64.34
16793;BME280;8513;42.662;23.350;2023-05-20T00:31:14;95209.53;;;14.48;64.24
16793;BME280;8513;42.662;23.350;2023-05-20T00:33:40;95205.94;;;14.58;63.79
16793;BME280;8513;42.662;23.350;2023-05-20T00:36:05;95193.88;;;14.47;63.29
16793;BME280;8513;42.662;23.350;2023-05-20T00:38:32;95203.81;;;14.37;63.70
16793;BME280;8513;42.662;23.350;2023-05-20T00:40:57;95201.66;;;14.32;63.86
16793;BME280;8513;42.662;23.350;2023-05-20T00:43:22;95203.00;;;14.36;63.90
16793;BME280;8513;42.662;23.350;2023-05-20T00:45:51;95200.34;;;14.36;63.80
16793;BME280;8513;42.662;23.350;2023-05-20T00:48:17;95184.94;;;14.40;63.75
16793;BME280;8513;42.662;23.350;2023-05-20T00:50:43;95176.03;;;14.41;63.76
16793;BME280;8513;42.662;23.350;2023-05-20T00:53:08;95188.31;;;14.25;64.24
16793;BME280;8513;42.662;23.350;2023-05-20T00:55:34;95181.97;;;14.43;63.55
16793;BME280;8513;42.662;23.350;2023-05-20T00:58:00;95181.50;;;14.39;63.95
16793;BME280;8513;42.662;23.350;2023-05-20T01:00:25;95173.63;;;14.15;64.54
16793;BME280;8513;42.662;23.350;2023-05-20T01:02:50;95186.16;;;14.21;64.32
16793;BME280;8513;42.662;23.350;2023-05-20T01:05:16;95191.31;;;14.06;64.67
16793;BME280;8513;42.662;23.350;2023-05-20T01:07:42;95197.81;;;14.03;64.58
16793;BME280;8513;42.662;23.350;2023-05-20T01:10:08;95187.38;;;14.02;64.25
16793;BME280;8513;42.662;23.350;2023-05-20T01:12:35;95191.16;;;14.07;63.71
16793;BME280;8513;42.662;23.350;2023-05-20T01:15:07;95204.75;;;13.88;64.43
16793;BME280;8513;42.662;23.350;2023-05-20T01:17:37;95200.97;;;13.82;64.45
16793;BME280;8513;42.662;23.350;2023-05-20T01:20:04;95202.47;;;13.85;64.51
16793;BME280;8513;42.662;23.350;2023-05-20T01:22:31;95201.59;;;13.84;64.46
16793;BME280;8513;42.662;23.350;2023-05-20T01:24:57;95205.09;;;13.93;64.09
16793;BME280;8513;42.662;23.350;2023-05-20T01:27:22;95196.97;;;13.95;64.09
16793;BME280;8513;42.662;23.350;2023-05-20T01:29:50;95199.28;;;13.98;64.17
16793;BME280;8513;42.662;23.350;2023-05-20T01:32:25;95197.97;;;14.02;63.81
16793;BME280;8513;42.662;23.350;2023-05-20T01:34:52;95200.75;;;14.00;64.09
16793;BME280;8513;42.662;23.350;2023-05-20T01:37:18;95190.19;;;14.00;64.33
16793;BME280;8513;42.662;23.350;2023-05-20T01:39:45;95192.19;;;13.98;64.44
16793;BME280;8513;42.662;23.350;2023-05-20T01:42:12;95193.00;;;13.99;64.21
16793;BME280;8513;42.662;23.350;2023-05-20T01:44:39;95196.16;;;13.94;63.89
16793;BME280;8513;42.662;23.350;2023-05-20T01:47:06;95192.03;;;13.75;64.82
16793;BME280;8513;42.662;23.350;2023-05-20T01:49:31;95185.44;;;13.87;64.08
16793;BME280;8513;42.662;23.350;2023-05-20T01:51:57;95188.41;;;13.76;64.61
16793;BME280;8513;42.662;23.350;2023-05-20T01:54:22;95196.00;;;13.71;64.41
16793;BME280;8513;42.662;23.350;2023-05-20T01:56:48;95194.34;;;13.78;63.96
16793;BME280;8513;42.662;23.350;2023-05-20T01:59:14;95177.84;;;13.76;63.87
16793;BME280;8513;42.662;23.350;2023-05-20T02:01:39;95177.00;;;13.76;63.78
16793;BME280;8513;42.662;23.350;2023-05-20T02:04:05;95184.94;;;13.76;63.49
16793;BME280;8513;42.662;23.350;2023-05-20T02:06:30;95190.06;;;13.77;63.39
16793;BME280;8513;42.662;23.350;2023-05-20T02:08:56;95183.63;;;13.72;63.68
16793;BME280;8513;42.662;23.350;2023-05-20T02:11:21;95179.19;;;13.72;63.91
16793;BME280;8513;42.662;23.350;2023-05-20T02:13:48;95167.94;;;13.70;64.10
16793;BME280;8513;42.662;23.350;2023-05-20T02:16:13;95174.38;;;13.67;64.04
16793;BME280;8513;42.662;23.350;2023-05-20T02:18:39;95179.66;;;13.67;63.72
16793;BME280;8513;42.662;23.350;2023-05-20T02:21:06;95188.94;;;13.63;64.16
16793;BME280;8513;42.662;23.350;2023-05-20T02:23:32;95182.81;;;13.55;63.98
16793;BME280;8513;42.662;23.350;2023-05-20T02:25:58;95175.38;;;13.58;63.90
16793;BME280;8513;42.662;23.350;2023-05-20T02:28:23;95176.56;;;13.56;63.73
16793;BME280;8513;42.662;23.350;2023-05-20T02:30:49;95181.16;;;13.54;63.59
16793;BME280;8513;42.662;23.350;2023-05-20T02:33:18;95174.25;;;13.53;63.05
16793;BME280;8513;42.662;23.350;2023-05-20T02:35:44;95171.09;;;13.49;62.73
16793;BME280;8513;42.662;23.350;2023-05-20T02:38:11;95172.75;;;13.50;62.51
16793;BME280;8513;42.662;23.350;2023-05-20T02:40:37;95175.56;;;13.49;62.63
16793;BME280;8513;42.662;23.350;2023-05-20T02:43:02;95170.94;;;13.42;63.15
16793;BME280;8513;42.662;23.350;2023-05-20T02:45:28;95180.16;;;13.46;63.19
16793;BME280;8513;42.662;23.350;2023-05-20T02:47:53;95170.59;;;13.45;63.14
16793;BME280;8513;42.662;23.350;2023-05-20T02:50:19;95174.06;;;13.38;64.01
16793;BME280;8513;42.662;23.350;2023-05-20T02:52:44;95170.59;;;13.37;64.03
16793;BME280;8513;42.662;23.350;2023-05-20T02:55:10;95177.53;;;13.30;63.94
16793;BME280;8513;42.662;23.350;2023-05-20T02:57:36;95170.94;;;13.34;64.15
16793;BME280;8513;42.662;23.350;2023-05-20T03:00:07;95172.44;;;13.37;63.92
16793;BME280;8513;42.662;23.350;2023-05-20T03:02:35;95169.91;;;13.11;64.73
16793;BME280;8513;42.662;23.350;2023-05-20T03:05:00;95170.56;;;13.05;65.17
16793;BME280;8513;42.662;23.350;2023-05-20T03:07:26;95177.53;;;12.63;66.64
16793;BME280;8513;42.662;23.350;2023-05-20T03:09:52;95183.78;;;12.54;66.88
16793;BME280;8513;42.662;23.350;2023-05-20T03:12:17;95183.22;;;12.93;65.76
16793;BME280;8513;42.662;23.350;2023-05-20T03:14:43;95187.00;;;12.82;66.25
16793;BME280;8513;42.662;23.350;2023-05-20T03:17:09;95197.41;;;12.92;66.17
16793;BME280;8513;42.662;23.350;2023-05-20T03:19:35;95190.81;;;12.96;65.96
16793;BME280;8513;42.662;23.350;2023-05-20T03:22:01;95196.63;;;12.99;65.91
16793;BME280;8513;42.662;23.350;2023-05-20T03:24:27;95187.22;;;12.97;65.83
16793;BME280;8513;42.662;23.350;2023-05-20T03:26:53;95200.72;;;12.86;66.00
16793;BME280;8513;42.662;23.350;2023-05-20T03:29:18;95194.25;;;12.80;66.69
16793;BME280;8513;42.662;23.350;2023-05-20T03:31:44;95195.09;;;12.89;66.14
16793;BME280;8513;42.662;23.350;2023-05-20T03:34:09;95193.41;;;12.79;66.49
16793;BME280;8513;42.662;23.350;2023-05-20T03:36:35;95204.69;;;12.98;66.00
16793;BME280;8513;42.662;23.350;2023-05-20T03:39:00;95194.59;;;12.93;66.08
16793;BME280;8513;42.662;23.350;2023-05-20T03:41:27;95197.16;;;12.61;66.86
16793;BME280;8513;42.662;23.350;2023-05-20T03:43:52;95202.69;;;12.84;66.30
16793;BME280;8513;42.662;23.350;2023-05-20T03:46:17;95214.75;;;12.94;66.33
16793;BME280;8513;42.662;23.350;2023-05-20T03:48:43;95206.19;;;13.00;65.96
16793;BME280;8513;42.662;23.350;2023-05-20T03:51:08;95207.00;;;13.09;65.71
16793;BME280;8513;42.662;23.350;2023-05-20T03:53:34;95209.16;;;13.14;65.90
16793;BME280;8513;42.662;23.350;2023-05-20T03:55:59;95208.34;;;13.13;65.85
16793;BME280;8513;42.662;23.350;2023-05-20T03:58:25;95214.13;;;13.17;65.83
16793;BME280;8513;42.662;23.350;2023-05-20T04:00:53;95219.78;;;13.30;65.60
16793;BME280;8513;42.662;23.350;2023-05-20T04:03:18;95224.56;;;13.27;65.46
16793;BME280;8513;42.662;23.350;2023-05-20T04:05:43;95221.59;;;13.30;65.83
16793;BME280;8513;42.662;23.350;2023-05-20T04:08:09;95227.22;;;13.35;65.73
16793;BME280;8513;42.662;23.350;2023-05-20T04:10:39;95226.72;;;13.31;65.96
16793;BME280;8513;42.662;23.350;2023-05-20T04:13:05;95221.13;;;13.42;65.89
16793;BME280;8513;42.662;23.350;2023-05-20T04:15:34;95229.19;;;13.49;65.27
16793;BME280;8513;42.662;23.350;2023-05-20T04:18:00;95225.06;;;13.55;64.79
16793;BME280;8513;42.662;23.350;2023-05-20T04:20:25;95227.22;;;13.67;64.44
16793;BME280;8513;42.662;23.350;2023-05-20T04:22:51;95224.91;;;13.64;63.73
16793;BME280;8513;42.662;23.350;2023-05-20T04:25:18;95221.28;;;13.74;62.58
16793;BME280;8513;42.662;23.350;2023-05-20T04:27:44;95228.56;;;13.88;61.82
16793;BME280;8513;42.662;23.350;2023-05-20T04:30:10;95216.16;;;13.88;61.78
16793;BME280;8513;42.662;23.350;2023-05-20T04:32:36;95210.69;;;13.74;61.76
16793;BME280;8513;42.662;23.350;2023-05-20T04:35:01;95221.28;;;13.74;61.97
16793;BME280;8513;42.662;23.350;2023-05-20T04:37:27;95220.28;;;13.83;61.55
16793;BME280;8513;42.662;23.350;2023-05-20T04:39:53;95223.75;;;13.92;62.09
16793;BME280;8513;42.662;23.350;2023-05-20T04:42:19;95232.00;;;13.97;61.78
16793;BME280;8513;42.662;23.350;2023-05-20T04:44:46;95231.97;;;14.13;61.43
16793;BME280;8513;42.662;23.350;2023-05-20T04:47:13;95238.06;;;14.13;61.69
16793;BME280;8513;42.662;23.350;2023-05-20T04:49:38;95221.91;;;14.17;61.61
16793;BME280;8513;42.662;23.350;2023-05-20T04:52:04;95243.66;;;14.27;61.42
16793;BME280;8513;42.662;23.350;2023-05-20T04:54:31;95242.34;;;14.31;61.88
16793;BME280;8513;42.662;23.350;2023-05-20T04:56:57;95234.56;;;14.29;62.94
16793;BME280;8513;42.662;23.350;2023-05-20T04:59:23;95230.28;;;14.28;63.29
16793;BME280;8513;42.662;23.350;2023-05-20T05:01:48;95235.06;;;14.41;62.74
16793;BME280;8513;42.662;23.350;2023-05-20T05:04:14;95236.69;;;14.42;62.79
16793;BME280;8513;42.662;23.350;2023-05-20T05:06:39;95233.22;;;14.50;62.62
16793;BME280;8513;42.662;23.350;2023-05-20T05:09:05;95237.69;;;14.58;61.81
16793;BME280;8513;42.662;23.350;2023-05-20T05:11:32;95237.66;;;14.66;61.67
16793;BME280;8513;42.662;23.350;2023-05-20T05:13:58;95241.44;;;14.71;61.62
16793;BME280;8513;42.662;23.350;2023-05-20T05:16:23;95239.09;;;14.76;61.69
16793;BME280;8513;42.662;23.350;2023-05-20T05:18:49;95234.34;;;14.64;61.42
16793;BME280;8513;42.662;23.350;2023-05-20T05:21:14;95234.63;;;14.77;60.63
16793;BME280;8513;42.662;23.350;2023-05-20T05:23:40;95231.13;;;14.85;60.00
16793;BME280;8513;42.662;23.350;2023-05-20T05:26:06;95221.66;;;14.90;59.87
16793;BME280;8513;42.662;23.350;2023-05-20T05:28:32;95234.19;;;14.96;60.42
16793;BME280;8513;42.662;23.350;2023-05-20T05:30:57;95224.72;;;15.02;60.54
16793;BME280;8513;42.662;23.350;2023-05-20T05:33:23;95227.22;;;15.04;60.60
16793;BME280;8513;42.662;23.350;2023-05-20T05:35:49;95213.25;;;15.10;60.14
16793;BME280;8513;42.662;23.350;2023-05-20T05:38:15;95213.91;;;15.12;59.88
16793;BME280;8513;42.662;23.350;2023-05-20T05:40:40;95220.53;;;15.16;60.12
16793;BME280;8513;42.662;23.350;2023-05-20T05:43:06;95221.75;;;15.28;59.84
16793;BME280;8513;42.662;23.350;2023-05-20T05:45:31;95226.03;;;15.37;59.74
16793;BME280;8513;42.662;23.350;2023-05-20T05:47:57;95221.03;;;15.42;59.05
16793;BME280;8513;42.662;23.350;2023-05-20T05:50:23;95222.94;;;15.49;57.99
16793;BME280;8513;42.662;23.350;2023-05-20T05:52:48;95220.25;;;15.57;57.53
16793;BME280;8513;42.662;23.350;2023-05-20T05:55:13;95216.22;;;15.61;57.59
16793;BME280;8513;42.662;23.350;2023-05-20T05:57:39;95222.47;;;15.68;57.82
16793;BME280;8513;42.662;23.350;2023-05-20T06:00:05;95224.63;;;15.73;58.28
16793;BME280;8513;42.662;23.350;2023-05-20T06:02:30;95224.25;;;15.76;59.23
16793;BME280;8513;42.662;23.350;2023-05-20T06:05:01;95216.75;;;15.79;59.28
16793;BME280;8513;42.662;23.350;2023-05-20T06:07:27;95214.22;;;15.86;59.14
16793;BME280;8513;42.662;23.350;2023-05-20T06:09:53;95206.38;;;15.93;58.48
16793;BME280;8513;42.662;23.350;2023-05-20T06:12:18;95209.13;;;15.99;58.24
16793;BME280;8513;42.662;23.350;2023-05-20T06:14:44;95208.94;;;16.01;58.08
16793;BME280;8513;42.662;23.350;2023-05-20T06:17:09;95205.59;;;16.07;57.73
16793;BME280;8513;42.662;23.350;2023-05-20T06:19:35;95208.53;;;16.12;57.44
16793;BME280;8513;42.662;23.350;2023-05-20T06:22:00;95201.03;;;16.16;57.02
16793;BME280;8513;42.662;23.350;2023-05-20T06:24:26;95203.75;;;16.22;56.95
16793;BME280;8513;42.662;23.350;2023-05-20T06:26:51;95198.94;;;16.26;56.98
16793;BME280;8513;42.662;23.350;2023-05-20T06:29:17;95199.81;;;16.33;56.99
16793;BME280;8513;42.662;23.350;2023-05-20T06:31:42;95204.06;;;16.42;57.10
16793;BME280;8513;42.662;23.350;2023-05-20T06:34:08;95195.53;;;16.47;56.75
16793;BME280;8513;42.662;23.350;2023-05-20T06:36:33;95186.84;;;16.53;55.85
16793;BME280;8513;42.662;23.350;2023-05-20T06:38:58;95179.16;;;16.58;55.32
16793;BME280;8513;42.662;23.350;2023-05-20T06:41:24;95173.63;;;16.60;55.09
16793;BME280;8513;42.662;23.350;2023-05-20T06:43:51;95177.22;;;16.67;55.06
16793;BME280;8513;42.662;23.350;2023-05-20T06:46:16;95179.59;;;16.76;55.17
16793;BME280;8513;42.662;23.350;2023-05-20T06:48:41;95173.56;;;16.83;55.33
16793;BME280;8513;42.662;23.350;2023-05-20T06:51:07;95174.84;;;16.87;54.76
16793;BME280;8513;42.662;23.350;2023-05-20T06:53:36;95172.63;;;16.90;54.17
16793;BME280;8513;42.662;23.350;2023-05-20T06:56:01;95176.19;;;16.97;54.06
16793;BME280;8513;42.662;23.350;2023-05-20T06:58:27;95180.53;;;17.05;53.63
16793;BME280;8513;42.662;23.350;2023-05-20T07:00:53;95182.00;;;17.08;52.56
16793;BME280;8513;42.662;23.350;2023-05-20T07:03:18;95186.56;;;17.14;51.77
16793;BME280;8513;42.662;23.350;2023-05-20T07:05:44;95181.31;;;17.20;53.30
16793;BME280;8513;42.662;23.350;2023-05-20T07:08:09;95172.97;;;17.24;52.66
16793;BME280;8513;42.662;23.350;2023-05-20T07:10:35;95179.44;;;17.36;52.69
16793;BME280;8513;42.662;23.350;2023-05-20T07:13:01;95170.44;;;17.37;51.67
16793;BME280;8513;42.662;23.350;2023-05-20T07:15:26;95175.19;;;17.41;51.57
16793;BME280;8513;42.662;23.350;2023-05-20T07:17:52;95177.09;;;17.48;51.22
16793;BME280;8513;42.662;23.350;2023-05-20T07:20:17;95174.28;;;17.56;49.60
16793;BME280;8513;42.662;23.350;2023-05-20T07:22:43;95169.44;;;17.59;49.64
16793;BME280;8513;42.662;23.350;2023-05-20T07:25:09;95170.69;;;17.63;49.01
16793;BME280;8513;42.662;23.350;2023-05-20T07:27:35;95164.38;;;17.64;50.21
16793;BME280;8513;42.662;23.350;2023-05-20T07:30:00;95160.50;;;17.67;48.46
16793;BME280;8513;42.662;23.350;2023-05-20T07:32:26;95160.38;;;17.75;48.68
16793;BME280;8513;42.662;23.350;2023-05-20T07:34:51;95163.91;;;17.82;50.28
16793;BME280;8513;42.662;23.350;2023-05-20T07:37:16;95169.09;;;17.91;49.46
16793;BME280;8513;42.662;23.350;2023-05-20T07:39:42;95164.22;;;17.94;49.14
16793;BME280;8513;42.662;23.350;2023-05-20T07:42:07;95174.88;;;18.01;48.09
16793;BME280;8513;42.662;23.350;2023-05-20T07:44:33;95171.03;;;18.03;48.49
16793;BME280;8513;42.662;23.350;2023-05-20T07:46:59;95174.16;;;18.14;47.85
16793;BME280;8513;42.662;23.350;2023-05-20T07:49:24;95171.84;;;18.04;46.73
16793;BME280;8513;42.662;23.350;2023-05-20T07:51:50;95172.31;;;18.14;47.56
16793;BME280;8513;42.662;23.350;2023-05-20T07:54:16;95163.75;;;18.19;47.39
16793;BME280;8513;42.662;23.350;2023-05-20T07:56:41;95169.31;;;18.24;47.75
16793;BME280;8513;42.662;23.350;2023-05-20T07:59:07;95168.75;;;18.28;47.34
16793;BME280;8513;42.662;23.350;2023-05-20T08:01:33;95167.13;;;18.34;47.00
16793;BME280;8513;42.662;23.350;2023-05-20T08:03:58;95169.00;;;18.40;46.94
16793;BME280;8513;42.662;23.350;2023-05-20T08:06:24;95163.91;;;18.45;47.06
16793;BME280;8513;42.662;23.350;2023-05-20T08:08:49;95160.28;;;18.53;47.30
16793;BME280;8513;42.662;23.350;2023-05-20T08:11:15;95152.91;;;18.55;46.73
16793;BME280;8513;42.662;23.350;2023-05-20T08:13:40;95159.28;;;18.61;47.11
16793;BME280;8513;42.662;23.350;2023-05-20T08:16:06;95156.81;;;18.59;47.00
16793;BME280;8513;42.662;23.350;2023-05-20T08:18:34;95152.53;;;18.65;47.60
16793;BME280;8513;42.662;23.350;2023-05-20T08:21:02;95157.31;;;18.76;48.58
16793;BME280;8513;42.662;23.350;2023-05-20T08:23:27;95153.53;;;19.05;45.47
16793;BME280;8513;42.662;23.350;2023-05-20T08:25:53;95151.66;;;18.92;45.50
16793;BME280;8513;42.662;23.350;2023-05-20T08:28:18;95147.84;;;18.73;46.09
16793;BME280;8513;42.662;23.350;2023-05-20T08:30:45;95145.03;;;18.75;46.48
16793;BME280;8513;42.662;23.350;2023-05-20T08:33:12;95143.03;;;18.90;45.63
16793;BME280;8513;42.662;23.350;2023-05-20T08:35:37;95142.00;;;18.91;45.90
16793;BME280;8513;42.662;23.350;2023-05-20T08:38:05;95139.75;;;18.95;46.55
16793;BME280;8513;42.662;23.350;2023-05-20T08:40:31;95137.53;;;18.99;47.05
16793;BME280;8513;42.662;23.350;2023-05-20T08:42:58;95138.16;;;19.07;47.47
16793;BME280;8513;42.662;23.350;2023-05-20T08:45:26;95138.81;;;19.23;45.32
16793;BME280;8513;42.662;23.350;2023-05-20T08:47:53;95142.69;;;19.07;45.70
16793;BME280;8513;42.662;23.350;2023-05-20T08:50:19;95143.72;;;19.12;46.19
16793;BME280;8513;42.662;23.350;2023-05-20T08:52:46;95154.00;;;19.22;44.94
16793;BME280;8513;42.662;23.350;2023-05-20T08:55:17;95155.44;;;19.25;45.33
16793;BME280;8513;42.662;23.350;2023-05-20T08:57:50;95153.63;;;19.52;44.08
16793;BME280;8513;42.662;23.350;2023-05-20T09:00:16;95154.84;;;19.43;44.77
16793;BME280;8513;42.662;23.350;2023-05-20T09:02:44;95147.47;;;19.38;45.55
16793;BME280;8513;42.662;23.350;2023-05-20T09:05:10;95143.38;;;19.49;45.60
16793;BME280;8513;42.662;23.350;2023-05-20T09:07:36;95138.03;;;19.62;45.00
16793;BME280;8513;42.662;23.350;2023-05-20T09:10:02;95141.31;;;19.64;45.65
16793;BME280;8513;42.662;23.350;2023-05-20T09:12:28;95129.25;;;19.68;45.01
16793;BME280;8513;42.662;23.350;2023-05-20T09:14:53;95141.53;;;19.82;43.81
16793;BME280;8513;42.662;23.350;2023-05-20T09:17:21;95132.53;;;19.97;43.17
16793;BME280;8513;42.662;23.350;2023-05-20T09:19:49;95123.47;;;19.91;44.25
16793;BME280;8513;42.662;23.350;2023-05-20T09:22:21;95125.09;;;19.99;44.84
16793;BME280;8513;42.662;23.350;2023-05-20T09:24:47;95113.59;;;20.18;43.55
16793;BME280;8513;42.662;23.350;2023-05-20T09:27:12;95110.69;;;20.26;44.17
16793;BME280;8513;42.662;23.350;2023-05-20T09:29:38;95113.38;;;20.26;43.85
16793;BME280;8513;42.662;23.350;2023-05-20T09:32:04;95112.16;;;20.16;43.46
16793;BME280;8513;42.662;23.350;2023-05-20T09:34:29;95110.06;;;20.24;43.35
16793;BME280;8513;42.662;23.350;2023-05-20T09:36:57;95101.44;;;20.29;43.34
16793;BME280;8513;42.662;23.350;2023-05-20T09:39:24;95107.94;;;20.53;43.92
16793;BME280;8513;42.662;23.350;2023-05-20T09:42:11;95106.69;;;20.69;44.54
16793;BME280;8513;42.662;23.350;2023-05-20T09:44:38;95101.28;;;20.82;43.97
16793;BME280;8513;42.662;23.350;2023-05-20T09:47:05;95099.69;;;21.06;44.14
16793;BME280;8513;42.662;23.350;2023-05-20T09:49:32;95100.59;;;21.25;42.20
16793;BME280;8513;42.662;23.350;2023-05-20T09:52:01;95098.44;;;21.41;42.39
16793;BME280;8513;42.662;23.350;2023-05-20T09:54:27;95095.91;;;21.77;40.35
16793;BME280;8513;42.662;23.350;2023-05-20T09:56:56;95086.72;;;21.67;41.10
16793;BME280;8513;42.662;23.350;2023-05-20T09:59:22;95089.00;;;21.88;40.01
16793;BME280;8513;42.662;23.350;2023-05-20T10:01:47;95093.72;;;21.68;41.31
16793;BME280;8513;42.662;23.350;2023-05-20T10:04:15;95083.66;;;21.88;41.21
16793;BME280;8513;42.662;23.350;2023-05-20T10:19:04;95057.53;;;22.45;37.46
16793;BME280;8513;42.662;23.350;2023-05-20T10:21:23;95056.53;;;22.58;38.63
16793;BME280;8513;42.662;23.350;2023-05-20T10:23:50;95048.66;;;22.63;38.31
16793;BME280;8513;42.662;23.350;2023-05-20T10:26:18;95050.22;;;22.34;39.80
16793;BME280;8513;42.662;23.350;2023-05-20T10:28:45;95053.44;;;22.43;39.02
16793;BME280;8513;42.662;23.350;2023-05-20T10:31:21;95048.13;;;22.73;37.28
16793;BME280;8513;42.662;23.350;2023-05-20T10:33:48;95053.75;;;22.83;36.27
16793;BME280;8513;42.662;23.350;2023-05-20T10:36:24;95039.56;;;22.95;35.98
16793;BME280;8513;42.662;23.350;2023-05-20T10:38:51;95043.25;;;23.12;35.81
16793;BME280;8513;42.662;23.350;2023-05-20T10:41:20;95038.59;;;23.07;35.49
16793;BME280;8513;42.662;23.350;2023-05-20T10:43:45;95029.41;;;23.27;35.34
16793;BME280;8513;42.662;23.350;2023-05-20T10:46:16;95025.94;;;23.26;34.34
16793;BME280;8513;42.662;23.350;2023-05-20T10:48:42;95023.38;;;23.43;36.06
16793;BME280;8513;42.662;23.350;2023-05-20T10:51:13;95023.28;;;23.50;34.89
16793;BME280;8513;42.662;23.350;2023-05-20T10:53:41;95021.75;;;23.54;34.39
16793;BME280;8513;42.662;23.350;2023-05-20T10:56:19;95022.59;;;23.66;35.23
16793;BME280;8513;42.662;23.350;2023-05-20T10:58:46;95021.91;;;23.83;34.59
16793;BME280;8513;42.662;23.350;2023-05-20T11:01:12;95018.41;;;23.94;34.71
16793;BME280;8513;42.662;23.350;2023-05-20T11:03:43;95008.69;;;24.05;33.91
16793;BME280;8513;42.662;23.350;2023-05-20T11:06:12;95012.88;;;24.12;33.95
16793;BME280;8513;42.662;23.350;2023-05-20T11:08:38;95016.63;;;24.11;32.96
16793;BME280;8513;42.662;23.350;2023-05-20T11:11:04;95010.53;;;24.16;32.00
16793;BME280;8513;42.662;23.350;2023-05-20T11:13:30;95000.97;;;24.20;32.71
16793;BME280;8513;42.662;23.350;2023-05-20T11:15:56;95001.03;;;24.37;32.75
16793;BME280;8513;42.662;23.350;2023-05-20T11:18:26;94992.38;;;24.47;32.33
16793;BME280;8513;42.662;23.350;2023-05-20T11:20:55;94999.38;;;24.48;32.71
16793;BME280;8513;42.662;23.350;2023-05-20T11:23:20;94996.72;;;24.24;34.34
16793;BME280;8513;42.662;23.350;2023-05-20T11:25:49;94989.59;;;24.30;34.73
16793;BME280;8513;42.662;23.350;2023-05-20T11:28:15;94984.44;;;24.52;33.63
16793;BME280;8513;42.662;23.350;2023-05-20T11:30:41;94992.72;;;24.50;34.39
16793;BME280;8513;42.662;23.350;2023-05-20T11:33:11;94981.00;;;24.56;35.04
16793;BME280;8513;42.662;23.350;2023-05-20T11:35:44;94972.59;;;24.81;33.46
16793;BME280;8513;42.662;23.350;2023-05-20T11:38:10;94985.63;;;24.73;31.70
16793;BME280;8513;42.662;23.350;2023-05-20T11:40:35;94970.63;;;24.77;31.83
16793;BME280;8513;42.662;23.350;2023-05-20T11:43:02;94977.50;;;25.01;34.09
16793;BME280;8513;42.662;23.350;2023-05-20T11:45:39;94965.97;;;25.18;35.37
16793;BME280;8513;42.662;23.350;2023-05-20T11:48:05;94970.38;;;25.41;35.31
16793;BME280;8513;42.662;23.350;2023-05-20T11:50:36;94971.03;;;25.48;34.03
16793;BME280;8513;42.662;23.350;2023-05-20T11:53:04;94963.28;;;25.51;32.59
16793;BME280;8513;42.662;23.350;2023-05-20T11:55:31;94961.16;;;25.37;34.35
16793;BME280;8513;42.662;23.350;2023-05-20T11:57:58;94970.13;;;25.25;33.50
16793;BME280;8513;42.662;23.350;2023-05-20T12:00:24;94971.59;;;24.99;32.37
16793;BME280;8513;42.662;23.350;2023-05-20T12:02:49;94969.25;;;24.91;33.34
16793;BME280;8513;42.662;23.350;2023-05-20T12:05:15;94971.22;;;24.79;33.38
16793;BME280;8513;42.662;23.350;2023-05-20T12:07:41;94966.53;;;24.57;33.61
16793;BME280;8513;42.662;23.350;2023-05-20T12:10:07;94971.03;;;24.28;33.80
16793;BME280;8513;42.662;23.350;2023-05-20T12:12:33;94962.44;;;24.14;34.31
16793;BME280;8513;42.662;23.350;2023-05-20T12:15:01;94958.63;;;23.87;35.13
16793;BME280;8513;42.662;23.350;2023-05-20T12:17:26;94958.16;;;23.78;35.57
16793;BME280;8513;42.662;23.350;2023-05-20T12:19:51;94962.00;;;23.35;36.36
16793;BME280;8513;42.662;23.350;2023-05-20T12:22:17;94961.75;;;23.13;36.34
16793;BME280;8513;42.662;23.350;2023-05-20T12:24:42;94983.41;;;23.00;36.85
16793;BME280;8513;42.662;23.350;2023-05-20T12:27:08;94986.78;;;22.65;37.03
16793;BME280;8513;42.662;23.350;2023-05-20T12:29:34;94987.44;;;22.49;36.41
16793;BME280;8513;42.662;23.350;2023-05-20T12:31:59;95007.78;;;22.19;36.16
16793;BME280;8513;42.662;23.350;2023-05-20T12:34:25;95020.63;;;21.92;36.75
16793;BME280;8513;42.662;23.350;2023-05-20T12:36:51;95006.13;;;21.56;37.09
16793;BME280;8513;42.662;23.350;2023-05-20T12:39:17;95006.28;;;21.36;36.95
16793;BME280;8513;42.662;23.350;2023-05-20T12:41:43;95006.66;;;21.15;38.56
16793;BME280;8513;42.662;23.350;2023-05-20T12:44:09;95016.56;;;21.14;38.78
16793;BME280;8513;42.662;23.350;2023-05-20T12:46:35;95010.44;;;21.07;38.86
16793;BME280;8513;42.662;23.350;2023-05-20T12:49:04;95015.59;;;21.02;38.32
16793;BME280;8513;42.662;23.350;2023-05-20T12:51:29;95023.09;;;20.87;38.80
16793;BME280;8513;42.662;23.350;2023-05-20T12:53:55;95021.28;;;21.12;38.81
16793;BME280;8513;42.662;23.350;2023-05-20T12:56:20;95007.53;;;21.34;38.39
16793;BME280;8513;42.662;23.350;2023-05-20T12:58:46;95000.13;;;21.61;38.39
16793;BME280;8513;42.662;23.350;2023-05-20T13:01:11;94988.47;;;22.29;37.41
16793;BME280;8513;42.662;23.350;2023-05-20T13:03:37;94991.63;;;22.86;36.10
16793;BME280;8513;42.662;23.350;2023-05-20T13:06:03;94971.09;;;23.22;35.08
16793;BME280;8513;42.662;23.350;2023-05-20T13:08:28;94968.81;;;23.85;34.66